createdAt,value
2022-09-05T00:00:03.888Z,3.92
2022-09-05T00:02:33.817Z,4.05
2022-09-05T00:05:09.856Z,4.85
2022-09-05T00:08:04.346Z,3.28
2022-09-05T00:11:16.797Z,2.85
2022-09-05T00:13:40.003Z,4.18
2022-09-05T00:16:31.546Z,4.00
2022-09-05T00:24:18.693Z,3.45
2022-09-05T00:24:36.554Z,4.05
2022-09-05T00:25:44.872Z,2.85
2022-09-05T00:28:27.066Z,3.58
2022-09-05T00:31:55.020Z,4.40
2022-09-05T00:34:12.966Z,4.60
2022-09-05T00:36:51.193Z,3.85
2022-09-05T00:39:32.168Z,3.42
2022-09-05T00:42:00.921Z,2.90
2022-09-05T00:44:31.067Z,3.17
2022-09-05T00:47:10.610Z,4.55
2022-09-05T00:49:54.030Z,4.45
2022-09-05T00:52:36.884Z,3.58
2022-09-05T00:55:25.883Z,3.03
2022-09-05T00:58:00.558Z,3.33
2022-09-05T01:00:33.476Z,2.85
2022-09-05T01:03:25.956Z,2.65
2022-09-05T01:06:02.267Z,3.88
2022-09-05T01:09:07.564Z,3.42
2022-09-05T01:11:51.610Z,4.93
2022-09-05T01:14:49.229Z,3.85
2022-09-05T01:17:33.808Z,3.45
2022-09-05T01:20:18.632Z,2.83
2022-09-05T01:23:08.872Z,3.30
2022-09-05T01:25:54.889Z,3.00
2022-09-05T01:29:16.145Z,2.80
2022-09-05T01:32:10.613Z,2.53
2022-09-05T01:34:54.390Z,3.40
2022-09-05T01:37:40.266Z,3.25
2022-09-05T01:40:22.592Z,2.70
2022-09-05T01:43:14.273Z,3.20
2022-09-05T01:45:47.952Z,2.40
2022-09-05T01:49:15.775Z,3.10
2022-09-05T01:52:20.120Z,2.55
2022-09-05T01:54:51.489Z,5.40
2022-09-05T01:57:24.118Z,3.50
2022-09-05T02:00:09.101Z,2.22
2022-09-05T02:02:50.713Z,4.30
2022-09-05T02:05:54.938Z,2.65
2022-09-05T02:08:40.977Z,3.47
2022-09-05T02:11:10.024Z,2.60
2022-09-05T02:13:36.795Z,2.85
2022-09-05T02:16:17.702Z,2.83
2022-09-05T02:19:09.668Z,3.03
2022-09-05T02:22:11.811Z,3.00
2022-09-05T02:24:45.889Z,2.17
2022-09-05T02:27:35.849Z,2.58
2022-09-05T02:30:14.643Z,3.15
2022-09-05T02:33:12.733Z,3.15
2022-09-05T02:36:00.135Z,2.40
2022-09-05T02:41:55.610Z,2.65
2022-09-05T02:45:14.077Z,2.58
2022-09-05T02:45:17.102Z,4.13
2022-09-05T02:47:22.600Z,3.60
2022-09-05T02:53:46.949Z,2.45
2022-09-05T02:57:35.756Z,2.67
2022-09-05T02:58:04.997Z,2.35
2022-09-05T02:59:11.083Z,1.77
2022-09-05T03:01:58.145Z,2.95
2022-09-05T03:04:28.010Z,3.00
2022-09-05T03:07:00.371Z,3.70
2022-09-05T03:09:34.886Z,5.97
2022-09-05T03:12:29.347Z,3.13
2022-09-05T03:15:20.756Z,3.50
2022-09-05T03:18:21.133Z,2.75
2022-09-05T03:21:12.314Z,2.45
2022-09-05T03:24:00.685Z,2.92
2022-09-05T03:27:04.411Z,4.22
2022-09-05T03:29:58.310Z,3.15
2022-09-05T03:32:49.074Z,2.78
2022-09-05T03:35:49.559Z,4.38
2022-09-05T03:38:50.166Z,5.32
2022-09-05T03:41:49.309Z,2.58
2022-09-05T03:44:31.677Z,3.05
2022-09-05T03:47:14.444Z,3.70
2022-09-05T03:51:58.913Z,2.67
2022-09-05T03:57:11.708Z,3.58
2022-09-05T03:57:12.481Z,4.28
2022-09-05T03:59:47.518Z,4.18
2022-09-05T04:08:08.564Z,2.70
2022-09-05T04:08:18.449Z,3.00
2022-09-05T04:08:41.934Z,3.90
2022-09-05T04:11:16.470Z,5.85
2022-09-05T04:13:51.104Z,3.20
2022-09-05T04:16:22.565Z,2.47
2022-09-05T04:19:06.139Z,4.10
2022-09-05T04:21:35.234Z,2.40
2022-09-05T04:24:12.801Z,3.67
2022-09-05T04:26:46.066Z,3.45
2022-09-05T04:29:37.850Z,3.60
2022-09-05T04:32:19.193Z,2.58
2022-09-05T04:35:07.770Z,2.33
2022-09-05T04:37:47.823Z,2.17
2022-09-05T04:40:40.340Z,1.88
2022-09-05T04:43:18.436Z,5.95
2022-09-05T04:46:15.757Z,13.52
2022-09-05T04:49:07.465Z,7.03
2022-09-05T04:52:00.380Z,3.97
2022-09-05T04:54:46.406Z,4.70
2022-09-05T04:57:23.374Z,4.00
2022-09-05T05:05:44.995Z,4.20
2022-09-05T05:06:09.962Z,6.15
2022-09-05T05:06:15.297Z,4.40
2022-09-05T05:08:42.763Z,5.95
2022-09-05T05:17:55.746Z,3.10
2022-09-05T05:18:01.445Z,3.63
2022-09-05T05:18:09.768Z,3.10
2022-09-05T05:20:52.926Z,5.78
2022-09-05T05:23:28.471Z,3.33
2022-09-05T05:25:57.221Z,2.83
2022-09-05T05:28:48.805Z,7.82
2022-09-05T05:31:23.772Z,8.38
2022-09-05T05:33:51.162Z,8.45
2022-09-05T05:36:26.266Z,24.80
2022-09-05T05:39:00.893Z,17.85
2022-09-05T05:41:44.340Z,11.02
2022-09-05T05:44:30.320Z,19.17
2022-09-05T05:47:28.257Z,10.13
2022-09-05T05:50:34.129Z,9.18
2022-09-05T05:53:41.054Z,9.40
2022-09-05T05:56:34.223Z,9.93
2022-09-05T05:59:13.043Z,12.90
2022-09-05T06:02:04.784Z,9.80
2022-09-05T06:04:44.928Z,9.38
2022-09-05T06:07:33.341Z,8.65
2022-09-05T06:14:55.913Z,7.18
2022-09-05T06:14:57.992Z,7.47
2022-09-05T06:16:39.018Z,7.38
2022-09-05T06:19:39.147Z,8.10
2022-09-05T06:22:23.019Z,9.18
2022-09-05T06:25:54.789Z,9.90
2022-09-05T06:28:54.266Z,8.60
2022-09-05T06:31:36.279Z,8.23
2022-09-05T06:34:37.047Z,9.77
2022-09-05T06:37:09.763Z,9.00
2022-09-05T06:39:55.070Z,7.68
2022-09-05T06:42:43.666Z,6.43
2022-09-05T06:45:37.683Z,9.57
2022-09-05T06:48:44.522Z,11.23
2022-09-05T06:52:28.793Z,20.85
2022-09-05T06:55:31.605Z,8.27
2022-09-05T06:58:13.828Z,8.93
2022-09-05T07:00:53.631Z,16.75
2022-09-05T07:05:14.882Z,9.75
2022-09-05T07:07:23.007Z,8.63
2022-09-05T07:09:59.542Z,14.15
2022-09-05T07:12:45.131Z,13.10
2022-09-05T07:15:46.757Z,12.30
2022-09-05T07:18:31.714Z,14.50
2022-09-05T07:21:16.317Z,11.40
2022-09-05T07:24:06.859Z,9.90
2022-09-05T07:26:53.530Z,13.77
2022-09-05T07:29:29.754Z,9.23
2022-09-05T07:31:56.927Z,9.02
2022-09-05T07:34:31.439Z,8.73
2022-09-05T07:37:14.947Z,9.20
2022-09-05T07:39:46.661Z,9.82
2022-09-05T07:42:16.945Z,15.65
2022-09-05T07:44:59.352Z,12.73
2022-09-05T07:47:33.863Z,12.38
2022-09-05T07:52:14.062Z,17.45
2022-09-05T07:56:52.335Z,12.55
2022-09-05T07:57:10.788Z,6.85
2022-09-05T07:58:41.447Z,11.38
2022-09-05T08:01:12.646Z,11.68
2022-09-05T08:03:39.614Z,11.30
2022-09-05T08:06:08.782Z,10.73
2022-09-05T08:09:21.323Z,12.20
2022-09-05T08:11:48.304Z,9.35
2022-09-05T08:14:46.008Z,14.13
2022-09-05T08:17:16.602Z,12.63
2022-09-05T08:20:02.486Z,13.90
2022-09-05T08:22:52.559Z,10.90
2022-09-05T08:25:37.620Z,9.13
2022-09-05T08:28:35.371Z,10.75
2022-09-05T08:31:22.897Z,7.15
2022-09-05T08:33:50.566Z,11.38
2022-09-05T08:36:41.308Z,12.32
2022-09-05T08:39:08.179Z,10.15
2022-09-05T08:42:09.672Z,10.68
2022-09-05T08:46:46.105Z,12.50
2022-09-05T08:48:27.605Z,9.80
2022-09-05T08:50:59.840Z,10.75
2022-09-05T08:54:07.943Z,11.23
2022-09-05T08:56:52.349Z,11.80
2022-09-05T08:59:32.812Z,11.05
2022-09-05T09:02:46.221Z,10.55
2022-09-05T09:05:23.509Z,8.20
2022-09-05T09:08:08.932Z,10.07
2022-09-05T09:10:54.937Z,9.18
2022-09-05T09:13:27.559Z,12.20
2022-09-05T09:16:05.224Z,10.82
2022-09-05T09:18:41.925Z,10.55
2022-09-05T09:21:46.973Z,9.38
2022-09-05T09:24:35.207Z,10.93
2022-09-05T09:27:06.598Z,15.70
2022-09-05T09:29:34.876Z,10.30
2022-09-05T09:32:21.599Z,6.90
2022-09-05T09:35:21.380Z,14.80
2022-09-05T09:38:10.832Z,13.27
2022-09-05T09:40:52.373Z,9.15
2022-09-05T09:43:34.038Z,11.63
2022-09-05T09:46:15.835Z,9.23
2022-09-05T09:49:03.906Z,11.30
2022-09-05T09:51:54.797Z,11.05
2022-09-05T09:54:47.424Z,10.85
2022-09-05T09:57:48.519Z,9.98
2022-09-05T10:00:24.037Z,10.95
2022-09-05T10:07:36.789Z,13.65
2022-09-05T10:10:53.339Z,9.80
2022-09-05T10:10:58.216Z,8.52
2022-09-05T10:12:04.059Z,11.55
2022-09-05T10:15:03.158Z,7.50
2022-09-05T10:18:07.119Z,7.80
2022-09-05T10:21:16.398Z,8.82
2022-09-05T10:24:07.160Z,6.35
2022-09-05T10:26:52.985Z,6.53
2022-09-05T10:29:37.442Z,5.18
2022-09-05T10:35:08.290Z,10.77
2022-09-05T10:35:37.685Z,7.45
2022-09-05T10:38:14.217Z,9.55
2022-09-05T10:41:08.127Z,6.18
2022-09-05T10:43:31.181Z,6.03
2022-09-05T10:45:58.110Z,6.97
2022-09-05T10:48:53.169Z,7.65
2022-09-05T10:51:37.749Z,8.27
2022-09-05T10:54:26.603Z,11.40
2022-09-05T10:57:22.006Z,6.55
2022-09-05T11:02:19.845Z,7.78
2022-09-05T11:03:01.283Z,8.15
2022-09-05T11:05:30.732Z,7.00
2022-09-05T11:08:06.633Z,8.50
2022-09-05T11:10:39.554Z,7.68
2022-09-05T11:13:10.755Z,8.25
2022-09-05T11:16:03.724Z,6.75
2022-09-05T11:18:55.040Z,7.13
2022-09-05T11:21:44.945Z,4.72
2022-09-05T11:24:31.938Z,5.13
2022-09-05T11:27:25.182Z,7.97
2022-09-05T11:29:56.103Z,6.28
2022-09-05T11:37:41.651Z,6.35
2022-09-05T11:39:45.574Z,5.55
2022-09-05T11:40:07.644Z,5.82
2022-09-05T11:41:24.829Z,5.60
2022-09-05T11:44:24.771Z,7.35
2022-09-05T11:47:26.546Z,6.68
2022-09-05T11:50:02.187Z,6.60
2022-09-05T11:53:06.725Z,8.20
2022-09-05T11:56:03.563Z,5.30
2022-09-05T11:58:49.657Z,9.93
2022-09-05T12:01:44.148Z,4.55
2022-09-05T12:04:34.091Z,6.45
2022-09-05T12:07:29.792Z,8.82
2022-09-05T12:10:46.774Z,8.10
2022-09-05T12:13:17.413Z,7.75
2022-09-05T12:15:53.431Z,6.68
2022-09-05T12:18:45.922Z,7.82
2022-09-05T12:21:28.842Z,5.95
2022-09-05T12:25:16.046Z,7.30
2022-09-05T12:27:38.042Z,8.10
2022-09-05T12:29:47.008Z,7.65
2022-09-05T12:34:06.482Z,8.52
2022-09-05T12:36:05.684Z,8.32
2022-09-05T12:40:54.115Z,7.78
2022-09-05T12:41:42.656Z,10.52
2022-09-05T12:44:42.031Z,7.45
2022-09-05T12:47:18.536Z,8.88
2022-09-05T12:50:14.951Z,8.40
2022-09-05T12:52:47.039Z,8.43
2022-09-05T12:55:32.611Z,10.20
2022-09-05T13:03:00.881Z,8.13
2022-09-05T13:03:01.530Z,9.00
2022-09-05T13:04:16.471Z,9.38
2022-09-05T13:06:40.201Z,5.65
2022-09-05T13:09:55.344Z,10.43
2022-09-05T13:14:52.981Z,9.93
2022-09-05T13:15:27.356Z,10.07
2022-09-05T13:17:59.278Z,8.48
2022-09-05T13:20:36.634Z,10.40
2022-09-05T13:23:26.940Z,12.07
2022-09-05T13:26:23.852Z,6.30
2022-09-05T13:29:10.189Z,8.00
2022-09-05T13:37:58.027Z,8.48
2022-09-05T13:38:08.281Z,6.63
2022-09-05T13:38:10.928Z,8.63
2022-09-05T13:40:38.863Z,7.07
2022-09-05T13:43:07.864Z,8.98
2022-09-05T13:45:39.012Z,7.03
2022-09-05T13:51:37.239Z,9.40
2022-09-05T13:54:19.051Z,9.00
2022-09-05T13:57:05.682Z,10.55
2022-09-05T13:59:36.251Z,8.55
2022-09-05T14:02:30.086Z,7.35
2022-09-05T14:05:19.472Z,6.20
2022-09-05T14:07:56.196Z,7.63
2022-09-05T14:10:50.929Z,8.52
2022-09-05T14:13:20.897Z,8.20
2022-09-05T14:16:05.831Z,6.70
2022-09-05T14:19:02.254Z,8.95
2022-09-05T14:21:30.517Z,4.82
2022-09-05T14:24:16.900Z,5.93
2022-09-05T14:27:00.363Z,9.77
2022-09-05T14:29:36.452Z,7.13
2022-09-05T14:37:34.272Z,6.20
2022-09-05T14:37:40.298Z,6.55
2022-09-05T14:38:25.637Z,7.93
2022-09-05T14:41:11.260Z,5.28
2022-09-05T14:44:05.354Z,6.93
2022-09-05T14:46:38.731Z,5.53
2022-09-05T14:49:31.690Z,5.57
2022-09-05T14:51:58.748Z,5.10
2022-09-05T15:02:43.093Z,7.50
2022-09-05T15:02:44.339Z,6.95
2022-09-05T15:03:07.320Z,5.85
2022-09-05T15:05:45.858Z,5.78
2022-09-05T15:10:06.429Z,9.80
2022-09-05T15:12:17.769Z,5.35
2022-09-05T15:14:04.775Z,6.00
2022-09-05T15:16:33.008Z,7.18
2022-09-05T15:19:00.044Z,7.18
2022-09-05T15:21:38.287Z,5.97
2022-09-05T15:24:17.513Z,8.27
2022-09-05T15:26:58.213Z,8.65
2022-09-05T15:29:30.275Z,4.88
2022-09-05T15:32:24.781Z,5.32
2022-09-05T15:34:52.930Z,5.72
2022-09-05T15:37:37.019Z,10.45
2022-09-05T15:40:23.049Z,7.15
2022-09-05T15:42:59.105Z,6.13
2022-09-05T15:45:35.489Z,9.27
2022-09-05T15:48:09.427Z,6.20
2022-09-05T15:50:51.240Z,4.45
2022-09-05T15:53:34.382Z,4.78
2022-09-05T15:56:10.305Z,5.35
2022-09-05T15:58:56.858Z,4.32
2022-09-05T16:01:59.058Z,7.43
2022-09-05T16:07:05.572Z,4.22
2022-09-05T16:10:39.232Z,6.32
2022-09-05T16:10:40.247Z,6.82
2022-09-05T16:12:50.556Z,6.05
2022-09-05T16:18:03.113Z,5.90
2022-09-05T16:23:15.453Z,7.38
2022-09-05T16:23:23.592Z,10.43
2022-09-05T16:24:13.725Z,8.65
2022-09-05T16:26:42.139Z,5.70
2022-09-05T16:29:25.287Z,6.00
2022-09-05T16:32:02.297Z,6.78
2022-09-05T16:34:31.524Z,8.27
2022-09-05T16:37:21.220Z,5.93
2022-09-05T16:39:51.139Z,5.68
2022-09-05T16:42:32.484Z,4.07
2022-09-05T16:45:18.271Z,7.03
2022-09-05T16:47:57.121Z,6.32
2022-09-05T16:50:48.030Z,4.60
2022-09-05T16:53:46.179Z,6.82
2022-09-05T16:56:52.319Z,10.48
2022-09-05T16:59:28.419Z,10.27
2022-09-05T17:02:09.630Z,7.75
2022-09-05T17:05:03.998Z,7.90
2022-09-05T17:07:44.388Z,10.48
2022-09-05T17:10:15.746Z,6.95
2022-09-05T17:12:43.216Z,5.50
2022-09-05T17:15:18.301Z,4.50
2022-09-05T17:18:19.859Z,5.53
2022-09-05T17:20:46.807Z,4.47
2022-09-05T17:29:15.902Z,7.43
2022-09-05T17:29:30.254Z,4.85
2022-09-05T17:29:31.433Z,5.07
2022-09-05T17:31:58.932Z,5.28
2022-09-05T17:34:47.582Z,5.30
2022-09-05T17:37:34.655Z,8.73
2022-09-05T17:40:38.424Z,8.73
2022-09-05T17:43:28.488Z,5.90
2022-09-05T17:46:13.875Z,13.10
2022-09-05T17:48:57.318Z,6.97
2022-09-05T17:51:41.503Z,6.10
2022-09-05T17:54:30.766Z,5.22
2022-09-05T17:56:57.768Z,6.05
2022-09-05T17:59:28.937Z,5.15
2022-09-05T18:02:01.852Z,6.40
2022-09-05T18:04:45.101Z,5.55
2022-09-05T18:07:26.898Z,6.43
2022-09-05T18:15:40.251Z,5.03
2022-09-05T18:18:24.280Z,5.55
2022-09-05T18:23:54.420Z,6.40
2022-09-05T18:26:25.791Z,6.18
2022-09-05T18:29:02.802Z,5.45
2022-09-05T18:31:40.925Z,7.28
2022-09-05T18:34:20.786Z,6.63
2022-09-05T18:36:48.796Z,9.13
2022-09-05T18:39:29.386Z,7.00
2022-09-05T18:42:34.456Z,7.90
2022-09-05T18:45:14.502Z,6.82
2022-09-05T18:48:02.934Z,6.55
2022-09-05T18:50:32.171Z,8.27
2022-09-05T18:53:08.848Z,5.13
2022-09-05T18:56:12.808Z,5.00
2022-09-05T18:58:30.374Z,5.57
2022-09-05T19:01:28.298Z,5.43
2022-09-05T19:03:59.034Z,6.28
2022-09-05T19:06:36.307Z,6.72
2022-09-05T19:09:09.358Z,6.93
2022-09-05T19:11:53.290Z,6.97
2022-09-05T19:14:34.406Z,5.97
2022-09-05T19:17:07.674Z,9.45
2022-09-05T19:20:32.100Z,4.88
2022-09-05T19:23:13.087Z,5.07
2022-09-05T19:25:43.848Z,8.00
2022-09-05T19:36:49.257Z,5.25
2022-09-05T19:36:51.851Z,5.85
2022-09-05T19:37:24.369Z,6.13
2022-09-05T19:44:39.053Z,5.75
2022-09-05T19:47:26.131Z,9.20
2022-09-05T19:47:56.206Z,5.63
2022-09-05T19:48:18.463Z,5.75
2022-09-05T19:50:47.162Z,5.05
2022-09-05T19:53:15.652Z,5.05
2022-09-05T19:55:42.506Z,7.78
2022-09-05T19:58:19.742Z,5.30
2022-09-05T20:01:01.292Z,6.55
2022-09-05T20:03:38.168Z,5.30
2022-09-05T20:06:29.042Z,5.47
2022-09-05T20:09:14.580Z,4.00
2022-09-05T20:11:46.579Z,6.43
2022-09-05T20:14:29.342Z,6.25
2022-09-05T20:17:21.301Z,6.43
2022-09-05T20:19:48.158Z,5.72
2022-09-05T20:22:47.380Z,7.90
2022-09-05T20:25:19.714Z,7.45
2022-09-05T20:28:09.999Z,4.50
2022-09-05T20:30:40.147Z,9.23
2022-09-05T20:33:16.733Z,4.40
2022-09-05T20:40:16.622Z,5.75
2022-09-05T20:43:19.745Z,9.10
2022-09-05T20:43:26.922Z,4.70
2022-09-05T20:44:39.708Z,5.72
2022-09-05T20:51:27.922Z,5.43
2022-09-05T20:54:15.236Z,6.85
2022-09-05T20:54:16.438Z,5.10
2022-09-05T20:56:04.832Z,7.03
2022-09-05T20:58:32.517Z,8.68
2022-09-05T21:01:21.617Z,6.55
2022-09-05T21:04:07.801Z,7.13
2022-09-05T21:06:35.881Z,7.15
2022-09-05T21:09:12.901Z,5.18
2022-09-05T21:11:39.659Z,5.53
2022-09-05T21:14:06.440Z,5.10
2022-09-05T21:16:49.222Z,6.63
2022-09-05T21:19:28.832Z,4.85
2022-09-05T21:22:09.869Z,5.05
2022-09-05T21:24:36.639Z,6.35
2022-09-05T21:27:17.421Z,7.38
2022-09-05T21:29:44.440Z,5.28
2022-09-05T21:32:14.506Z,7.20
2022-09-05T21:34:45.056Z,5.25
2022-09-05T21:37:16.111Z,4.50
2022-09-05T21:39:59.753Z,4.20
2022-09-05T21:45:43.402Z,4.97
2022-09-05T21:47:44.485Z,5.50
2022-09-05T21:48:10.553Z,3.72
2022-09-05T21:50:49.606Z,7.55
2022-09-05T21:57:00.435Z,7.72
2022-09-05T21:59:17.641Z,6.70
2022-09-05T22:02:07.240Z,4.32
2022-09-05T22:04:41.270Z,3.67
2022-09-05T22:07:08.932Z,5.70
2022-09-05T22:09:35.736Z,5.05
2022-09-05T22:12:06.212Z,4.05
2022-09-05T22:14:49.422Z,5.30
2022-09-05T22:17:18.276Z,4.93
2022-09-05T22:19:45.837Z,4.70
2022-09-05T22:22:17.323Z,5.90
2022-09-05T22:24:59.426Z,3.90
2022-09-05T22:27:26.524Z,4.82
2022-09-05T22:29:53.425Z,5.65
2022-09-05T22:32:32.311Z,4.80
2022-09-05T22:35:26.974Z,3.72
2022-09-05T22:37:59.734Z,5.55
2022-09-05T22:40:28.598Z,4.68
2022-09-05T22:42:59.719Z,7.50
2022-09-05T22:45:26.792Z,4.38
2022-09-05T22:47:53.830Z,3.35
2022-09-05T22:50:20.675Z,3.67
2022-09-05T22:52:47.437Z,5.28
2022-09-05T22:55:14.211Z,4.32
2022-09-05T22:57:42.228Z,4.20
2022-09-05T23:00:09.745Z,4.95
2022-09-05T23:02:36.497Z,5.95
2022-09-05T23:05:04.349Z,5.45
2022-09-05T23:07:32.300Z,6.43
2022-09-05T23:09:59.348Z,6.97
2022-09-05T23:12:26.149Z,4.97
2022-09-05T23:14:52.954Z,5.07
2022-09-05T23:17:19.714Z,4.57
2022-09-05T23:19:46.477Z,3.22
2022-09-05T23:22:13.225Z,3.63
2022-09-05T23:24:39.980Z,3.80
2022-09-05T23:27:06.732Z,3.47
2022-09-05T23:29:33.584Z,3.15
2022-09-05T23:32:00.350Z,4.03
2022-09-05T23:34:27.172Z,4.80
2022-09-05T23:36:53.931Z,4.13
2022-09-05T23:39:20.685Z,6.28
2022-09-05T23:41:47.515Z,4.35
2022-09-05T23:44:14.342Z,3.65
2022-09-05T23:46:41.219Z,4.50
2022-09-05T23:49:08.050Z,4.00
2022-09-05T23:51:34.853Z,4.70
2022-09-05T23:54:01.614Z,4.28
2022-09-05T23:56:28.383Z,4.07
2022-09-05T23:58:55.142Z,3.65
